Shokyu Maru — JG5288 — position and weather

sailwx.info

Track history (hours):
 
Tides and Currents Weather Stations Pressure Air Temp Water Temp Dewpoint Dewpoint Depression Visibility Wind Speed Wind Dir Waves Ship Positions

Shokyu Maru

Last reported at 2016-Feb-10 14:31 UTC. Time now 2016-Feb-10 15:20 UTC.
Position N 35°31' E 139°59'.

Length 91 m; draft 5.2 m.

Type: Ship. MMSI: 431000253.

Date/timePositionNaut miles runAvg speedWind from/ knotsBaromVisibWave heightAir tempDewpointWater temp
2016-Feb-10 14:31N 35°31' E 139°59'0 0.0
2016-Feb-10 13:31N 35°31' E 139°59'0 0.0
2016-Feb-10 12:31N 35°31' E 139°59'2 2.6
2016-Feb-10 11:34N 35°33' E 139°59'7 6.6
2016-Feb-10 10:25N 35°41' E 139°56'0 0.0
2016-Feb-10 09:31N 35°41' E 139°56'0 0.0
2016-Feb-10 08:04N 35°41' E 139°56'0 0.0
2016-Feb-10 07:28N 35°41' E 139°56'0 0.0
2016-Feb-10 06:31N 35°41' E 139°56'7 6.8
2016-Feb-10 05:34N 35°34' E 139°59'5 2.3
2016-Feb-10 03:21N 35°30' E 140°02'0 0.0
2016-Feb-10 02:27N 35°30' E 140°02'0 0.1
2016-Feb-10 01:31N 35°30' E 140°02'3 2.7
2016-Feb-10 00:33N 35°31' E 139°59'0 0.0
2016-Feb-09 23:22N 35°31' E 139°59'0 0.0
2016-Feb-09 22:31N 35°31' E 139°59'1 0.8
2016-Feb-09 21:33N 35°32' E 139°60'6 6.1
2016-Feb-09 20:33N 35°36' E 140°06'0 0.0
2016-Feb-09 19:33N 35°36' E 140°06'0 0.0
2016-Feb-09 18:27N 35°36' E 140°06'0 0.0
2016-Feb-09 17:33N 35°36' E 140°06'0 0.0
2016-Feb-09 16:33N 35°36' E 140°06'0 0.0
2016-Feb-09 15:33N 35°36' E 140°06'0 0.0
2016-Feb-09 14:33N 35°36' E 140°06'0 0.0
2016-Feb-09 13:30N 35°36' E 140°06'0 0.0
2016-Feb-09 12:33N 35°36' E 140°06'0 0.0
2016-Feb-09 11:27N 35°36' E 140°06'0 0.0
2016-Feb-09 10:33N 35°36' E 140°06'0 0.0
2016-Feb-09 09:33N 35°36' E 140°06'0 0.0
2016-Feb-09 08:33N 35°36' E 140°06'0 0.0
2016-Feb-09 07:33N 35°36' E 140°06'0 0.0
2016-Feb-09 06:30N 35°36' E 140°06'5 5.2
2016-Feb-09 05:33N 35°34' E 140°00'4 3.9
2016-Feb-09 04:32N 35°34' E 139°55'0 0.0
2016-Feb-09 03:31N 35°34' E 139°55'2 2.4
2016-Feb-09 02:33N 35°36' E 139°57'5 4.2
2016-Feb-09 01:28N 35°41' E 139°57'0 0.0
2016-Feb-09 00:22N 35°41' E 139°57'0 0.0
2016-Feb-08 23:28N 35°41' E 139°57'0 0.0
2016-Feb-08 22:28N 35°41' E 139°57'1 1.4
2016-Feb-08 21:34N 35°40' E 139°58'5 4.7
2016-Feb-08 20:29N 35°35' E 139°55'0 0.1
2016-Feb-08 19:32N 35°35' E 139°55'0 0.0
2016-Feb-08 18:32N 35°35' E 139°55'0 0.0
2016-Feb-08 17:29N 35°35' E 139°55'0 0.0
2016-Feb-08 16:32N 35°35' E 139°55'0 0.0
2016-Feb-08 15:29N 35°35' E 139°55'0 0.0
2016-Feb-08 14:29N 35°35' E 139°55'0 0.0
2016-Feb-08 13:23N 35°35' E 139°55'0 0.0
2016-Feb-08 12:29N 35°35' E 139°55'6 6.2
2016-Feb-08 11:34N 35°31' E 139°50'3 2.7
2016-Feb-08 10:28N 35°31' E 139°46'0 0.0
2016-Feb-08 09:31N 35°31' E 139°46'0 0.0
2016-Feb-08 08:31N 35°31' E 139°46'0 0.0
2016-Feb-08 07:31N 35°31' E 139°46'0 0.0
2016-Feb-08 06:31N 35°31' E 139°46'1 0.6
2016-Feb-08 05:33N 35°31' E 139°46'3 2.5
2016-Feb-08 04:33N 35°28' E 139°47'8 8.1
2016-Feb-08 03:33N 35°34' E 139°53'1 1.3
2016-Feb-08 02:33N 35°35' E 139°55'6 5.9
2016-Feb-08 01:33N 35°40' E 139°57'0 0.1
2016-Feb-08 00:33N 35°41' E 139°56'0 0.0
2016-Feb-07 23:27N 35°41' E 139°56'0 0.0
2016-Feb-07 22:18N 35°41' E 139°56'3 3.4
2016-Feb-07 21:33N 35°39' E 139°58'4 4.2
2016-Feb-07 20:32N 35°35' E 139°55'0 0.0
2016-Feb-07 19:32N 35°35' E 139°55'0 0.0
2016-Feb-07 18:32N 35°35' E 139°55'0 0.0
2016-Feb-07 17:32N 35°35' E 139°55'0 0.0
2016-Feb-07 16:32N 35°35' E 139°55'0 0.0
2016-Feb-07 15:32N 35°35' E 139°55'0 0.0
2016-Feb-07 14:32N 35°35' E 139°55'0 0.0
2016-Feb-07 13:32N 35°35' E 139°55'0 0.0
2016-Feb-07 12:32N 35°35' E 139°55'0 0.1
2016-Feb-07 11:33N 35°35' E 139°55'8 8.4
2016-Feb-07 10:34N 35°29' E 139°48'8 8.4
2016-Feb-07 09:34N 35°24' E 139°40'0 0.2
2016-Feb-07 08:31N 35°24' E 139°40'0 0.0
2016-Feb-07 07:31N 35°24' E 139°40'0 0.0
2016-Feb-07 06:31N 35°24' E 139°40'0 0.0
2016-Feb-07 05:31N 35°24' E 139°40'3 2.8
2016-Feb-07 04:33N 35°25' E 139°43'1111.4
2016-Feb-07 03:33N 35°33' E 139°52'8 8.3
2016-Feb-07 02:33N 35°41' E 139°56'0 0.0
2016-Feb-07 01:33N 35°41' E 139°56'0 0.0
2016-Feb-07 00:27N 35°41' E 139°56'0 0.0
2016-Feb-06 23:33N 35°41' E 139°56'0 0.0
2016-Feb-06 22:33N 35°41' E 139°56'2 1.6
2016-Feb-06 21:34N 35°39' E 139°58'5 4.4
2016-Feb-06 20:30N 35°35' E 139°55'0 0.0
2016-Feb-06 19:24N 35°35' E 139°55'0 0.0
2016-Feb-06 18:33N 35°35' E 139°55'0 0.0
2016-Feb-06 17:24N 35°35' E 139°55'0 0.0
2016-Feb-06 16:24N 35°35' E 139°55'0 0.0
2016-Feb-06 15:30N 35°35' E 139°55'0 0.0
2016-Feb-06 14:33N 35°35' E 139°55'0 0.1
2016-Feb-06 13:33N 35°35' E 139°55'0 0.0
2016-Feb-06 12:27N 35°35' E 139°55'5 5.4
2016-Feb-06 11:33N 35°32' E 139°59'3 2.7
2016-Feb-06 10:25N 35°30' E 140°02'0 0.0
2016-Feb-06 09:31N 35°30' E 140°02'0 0.0
2016-Feb-06 08:31N 35°30' E 140°02'0 0.0
2016-Feb-06 07:25N 35°30' E 140°02'3 3.0
2016-Feb-06 06:33N 35°31' E 139°59'4 4.3
2016-Feb-06 05:33N 35°34' E 139°55'1 0.9
2016-Feb-06 04:33N 35°35' E 139°55'5 5.1
2016-Feb-06 03:33N 35°39' E 139°58'1 1.3
2016-Feb-06 02:30N 35°41' E 139°56'0 0.0
2016-Feb-06 01:24N 35°41' E 139°56'0 0.0
2016-Feb-06 00:30N 35°41' E 139°56'0 0.0
2016-Feb-05 23:24N 35°41' E 139°56'1 1.2
2016-Feb-05 22:33N 35°40' E 139°57'5 4.8
2016-Feb-05 21:31N 35°35' E 139°55'0 0.0
2016-Feb-05 20:07N 35°35' E 139°55'0 0.0
2016-Feb-05 19:19N 35°35' E 139°55'0 0.0
2016-Feb-05 18:31N 35°35' E 139°55'0 0.0
2016-Feb-05 17:25N 35°35' E 139°55'0 0.0
2016-Feb-05 16:31N 35°35' E 139°55'0 0.0
2016-Feb-05 15:31N 35°35' E 139°55'0 0.0
2016-Feb-05 14:31N 35°35' E 139°55'0 0.0
2016-Feb-05 13:31N 35°35' E 139°55'0 0.0
2016-Feb-05 12:31N 35°35' E 139°55'0 0.0
2016-Feb-05 11:31N 35°35' E 139°55'0 0.1
2016-Feb-05 10:33N 35°35' E 139°55'8 7.8
2016-Feb-05 09:30N 35°29' E 140°01'0 0.0
2016-Feb-05 08:30N 35°29' E 140°01'0 0.0
2016-Feb-05 07:30N 35°29' E 140°01'0 0.0
2016-Feb-05 06:30N 35°29' E 140°01'0 0.0
2016-Feb-05 05:30N 35°29' E 140°01'0 0.0
2016-Feb-05 04:30N 35°29' E 140°01'0 0.0
2016-Feb-05 03:30N 35°29' E 140°01'6 6.1
2016-Feb-05 02:33N 35°34' E 139°59'7 5.7
2016-Feb-05 01:23N 35°41' E 139°56'0 0.0
2016-Feb-05 00:29N 35°41' E 139°56'0 0.0
2016-Feb-04 23:23N 35°41' E 139°56'0 0.0
2016-Feb-04 22:29N 35°41' E 139°56'1 1.6
2016-Feb-04 21:33N 35°39' E 139°58'4 3.7
2016-Feb-04 20:22N 35°36' E 139°55'0 0.0
2016-Feb-04 18:22N 35°36' E 139°55'0 0.0
2016-Feb-04 17:28N 35°36' E 139°55'0 0.0
2016-Feb-04 16:22N 35°36' E 139°55'0 0.0
2016-Feb-04 15:28N 35°36' E 139°55'0 0.1
2016-Feb-04 14:31N 35°36' E 139°55'0 0.0
2016-Feb-04 13:31N 35°36' E 139°55'0 0.0
2016-Feb-04 12:31N 35°36' E 139°55'7 7.1
2016-Feb-04 11:33N 35°31' E 139°49'3 3.4
2016-Feb-04 10:32N 35°30' E 139°45'0 0.0
2016-Feb-04 09:32N 35°30' E 139°45'0 0.0
2016-Feb-04 08:32N 35°30' E 139°45'0 0.0
2016-Feb-04 07:32N 35°30' E 139°45'3 3.5
2016-Feb-04 06:33N 35°27' E 139°43'7 6.4
2016-Feb-04 05:31N 35°30' E 139°51'0 0.0
2016-Feb-04 04:31N 35°30' E 139°51'1 0.6
2016-Feb-04 03:33N 35°30' E 139°51'1010.4
2016-Feb-04 02:33N 35°39' E 139°58'2 1.6
2016-Feb-04 01:26N 35°41' E 139°56'0 0.0
2016-Feb-04 00:26N 35°41' E 139°56'0 0.0
2016-Feb-03 23:08N 35°41' E 139°56'0 0.0
2016-Feb-03 22:32N 35°41' E 139°56'2 1.9
2016-Feb-03 21:33N 35°39' E 139°58'5 4.6
2016-Feb-03 20:29N 35°35' E 139°55'0 0.0
2016-Feb-03 19:23N 35°35' E 139°55'0 0.0
2016-Feb-03 18:29N 35°35' E 139°55'0 0.0
2016-Feb-03 17:29N 35°35' E 139°55'0 0.0
2016-Feb-03 16:23N 35°35' E 139°55'0 0.0
2016-Feb-03 15:29N 35°35' E 139°55'0 0.0
2016-Feb-03 14:23N 35°35' E 139°55'0 0.0
2016-Feb-03 13:23N 35°35' E 139°55'0 0.0
2016-Feb-03 12:29N 35°35' E 139°55'0 0.0
2016-Feb-03 11:14N 35°35' E 139°55'0 0.0
2016-Feb-03 10:32N 35°35' E 139°55'0 0.1
2016-Feb-03 09:32N 35°35' E 139°55'0 0.1
2016-Feb-03 08:33N 35°35' E 139°55'7 7.0
2016-Feb-03 07:31N 35°30' E 140°02'0 0.0
2016-Feb-03 04:23N 35°30' E 140°02'7 8.6
2016-Feb-03 03:33N 35°34' E 139°55'5 5.0
2016-Feb-03 02:33N 35°38' E 139°59'3 2.2
2016-Feb-03 01:09N 35°41' E 139°56'0 0.0
2016-Feb-03 00:33N 35°41' E 139°56'0 0.0
2016-Feb-02 23:27N 35°41' E 139°56'0 0.0
2016-Feb-02 22:21N 35°41' E 139°56'2 2.5
2016-Feb-02 21:33N 35°39' E 139°58'5 4.9
2016-Feb-02 20:29N 35°34' E 139°55'0 0.0
2016-Feb-02 19:17N 35°34' E 139°55'0 0.0
2016-Feb-02 18:29N 35°34' E 139°55'0 0.0
2016-Feb-02 17:32N 35°34' E 139°55'0 0.0
2016-Feb-02 16:29N 35°34' E 139°55'0 0.0
2016-Feb-02 15:20N 35°34' E 139°55'0 0.0
2016-Feb-02 14:29N 35°34' E 139°55'0 0.1
2016-Feb-02 13:33N 35°35' E 139°55'9 9.0
2016-Feb-02 12:33N 35°30' E 139°45'0 0.1
2016-Feb-02 11:32N 35°30' E 139°45'0 0.0
2016-Feb-02 10:32N 35°30' E 139°45'0 0.0
2016-Feb-02 09:32N 35°30' E 139°45'0 0.0
2016-Feb-02 08:29N 35°30' E 139°45'3 3.5
2016-Feb-02 07:33N 35°28' E 139°42'7 7.1
2016-Feb-02 06:33N 35°30' E 139°50'0 0.0
2016-Feb-02 05:30N 35°30' E 139°50'6 6.5
2016-Feb-02 04:33N 35°35' E 139°55'6 4.8
2016-Feb-02 03:22N 35°41' E 139°56'0 0.0
2016-Feb-02 02:28N 35°41' E 139°56'0 0.0
2016-Feb-02 01:22N 35°41' E 139°56'0 0.0
2016-Feb-02 00:22N 35°41' E 139°56'0 0.0
2016-Feb-01 23:22N 35°41' E 139°56'5 6.5
2016-Feb-01 22:33N 35°35' E 139°56'1 0.6
2016-Feb-01 21:30N 35°35' E 139°55'0 0.0
2016-Feb-01 19:30N 35°35' E 139°55'0 0.0
2016-Feb-01 18:18N 35°35' E 139°55'0 0.0
2016-Feb-01 17:30N 35°35' E 139°55'0 0.0
2016-Feb-01 16:06N 35°35' E 139°55'0 0.0
2016-Feb-01 15:30N 35°35' E 139°55'0 0.0
2016-Feb-01 14:30N 35°35' E 139°55'0 0.0
2016-Feb-01 13:24N 35°35' E 139°55'0 0.1
2016-Feb-01 12:33N 35°35' E 139°55'0 0.0
2016-Feb-01 11:18N 35°35' E 139°55'0 0.1
2016-Feb-01 10:30N 35°35' E 139°55'0 0.0
2016-Feb-01 09:33N 35°35' E 139°55'0 0.0
2016-Feb-01 08:33N 35°35' E 139°55'0 0.0
2016-Feb-01 07:30N 35°35' E 139°55'0 0.0
2016-Feb-01 06:33N 35°35' E 139°55'0 0.1
2016-Feb-01 05:27N 35°35' E 139°55'0 0.0
2016-Feb-01 04:30N 35°35' E 139°55'0 0.0
2016-Feb-01 03:30N 35°35' E 139°55'0 0.0
2016-Feb-01 02:30N 35°35' E 139°55'6 6.0
2016-Feb-01 01:33N 35°31' E 140°00'2 1.6
2016-Feb-01 00:22N 35°30' E 140°02'0 0.0
2016-Jan-31 23:28N 35°30' E 140°02'0 0.0
2016-Jan-31 22:28N 35°30' E 140°02'2 1.9
2016-Jan-31 21:33N 35°31' E 140°00'1 0.9
2016-Jan-31 20:26N 35°31' E 139°59'0 0.0
2016-Jan-31 19:32N 35°31' E 139°59'0 0.0
2016-Jan-31 18:14N 35°31' E 139°59'0 0.0
2016-Jan-31 17:32N 35°31' E 139°59'0 0.0
2016-Jan-31 16:32N 35°31' E 139°59'0 0.1
2016-Jan-31 15:32N 35°31' E 139°59'0 0.1
2016-Jan-31 14:32N 35°32' E 139°59'  
Track history (hours):
 
Tides and Currents Weather Stations Pressure Air Temp Water Temp Dewpoint Dewpoint Depression Visibility Wind Speed Wind Dir Waves Ship Positions

Shokyu Maru

Last reported at 2016-Feb-10 14:31 UTC. Time now 2016-Feb-10 15:20 UTC.
Position N 35°31' E 139°59'.

Length 91 m; draft 5.2 m.

Type: Ship. MMSI: 431000253.

Date/timePositionNaut miles runAvg speedWind from/ knotsBaromVisibWave heightAir tempDewpointWater temp
2016-Feb-10 14:31N 35°31' E 139°59'0 0.0
2016-Feb-10 13:31N 35°31' E 139°59'0 0.0
2016-Feb-10 12:31N 35°31' E 139°59'2 2.6
2016-Feb-10 11:34N 35°33' E 139°59'7 6.6
2016-Feb-10 10:25N 35°41' E 139°56'0 0.0
2016-Feb-10 09:31N 35°41' E 139°56'0 0.0
2016-Feb-10 08:04N 35°41' E 139°56'0 0.0
2016-Feb-10 07:28N 35°41' E 139°56'0 0.0
2016-Feb-10 06:31N 35°41' E 139°56'7 6.8
2016-Feb-10 05:34N 35°34' E 139°59'5 2.3
2016-Feb-10 03:21N 35°30' E 140°02'0 0.0
2016-Feb-10 02:27N 35°30' E 140°02'0 0.1
2016-Feb-10 01:31N 35°30' E 140°02'3 2.7
2016-Feb-10 00:33N 35°31' E 139°59'0 0.0
2016-Feb-09 23:22N 35°31' E 139°59'0 0.0
2016-Feb-09 22:31N 35°31' E 139°59'1 0.8
2016-Feb-09 21:33N 35°32' E 139°60'6 6.1
2016-Feb-09 20:33N 35°36' E 140°06'0 0.0
2016-Feb-09 19:33N 35°36' E 140°06'0 0.0
2016-Feb-09 18:27N 35°36' E 140°06'0 0.0
2016-Feb-09 17:33N 35°36' E 140°06'0 0.0
2016-Feb-09 16:33N 35°36' E 140°06'0 0.0
2016-Feb-09 15:33N 35°36' E 140°06'0 0.0
2016-Feb-09 14:33N 35°36' E 140°06'0 0.0
2016-Feb-09 13:30N 35°36' E 140°06'0 0.0
2016-Feb-09 12:33N 35°36' E 140°06'0 0.0
2016-Feb-09 11:27N 35°36' E 140°06'0 0.0
2016-Feb-09 10:33N 35°36' E 140°06'0 0.0
2016-Feb-09 09:33N 35°36' E 140°06'0 0.0
2016-Feb-09 08:33N 35°36' E 140°06'0 0.0
2016-Feb-09 07:33N 35°36' E 140°06'0 0.0
2016-Feb-09 06:30N 35°36' E 140°06'5 5.2
2016-Feb-09 05:33N 35°34' E 140°00'4 3.9
2016-Feb-09 04:32N 35°34' E 139°55'0 0.0
2016-Feb-09 03:31N 35°34' E 139°55'2 2.4
2016-Feb-09 02:33N 35°36' E 139°57'5 4.2
2016-Feb-09 01:28N 35°41' E 139°57'0 0.0
2016-Feb-09 00:22N 35°41' E 139°57'0 0.0
2016-Feb-08 23:28N 35°41' E 139°57'0 0.0
2016-Feb-08 22:28N 35°41' E 139°57'1 1.4
2016-Feb-08 21:34N 35°40' E 139°58'5 4.7
2016-Feb-08 20:29N 35°35' E 139°55'0 0.1
2016-Feb-08 19:32N 35°35' E 139°55'0 0.0
2016-Feb-08 18:32N 35°35' E 139°55'0 0.0
2016-Feb-08 17:29N 35°35' E 139°55'0 0.0
2016-Feb-08 16:32N 35°35' E 139°55'0 0.0
2016-Feb-08 15:29N 35°35' E 139°55'0 0.0
2016-Feb-08 14:29N 35°35' E 139°55'0 0.0
2016-Feb-08 13:23N 35°35' E 139°55'0 0.0
2016-Feb-08 12:29N 35°35' E 139°55'6 6.2
2016-Feb-08 11:34N 35°31' E 139°50'3 2.7
2016-Feb-08 10:28N 35°31' E 139°46'0 0.0
2016-Feb-08 09:31N 35°31' E 139°46'0 0.0
2016-Feb-08 08:31N 35°31' E 139°46'0 0.0
2016-Feb-08 07:31N 35°31' E 139°46'0 0.0
2016-Feb-08 06:31N 35°31' E 139°46'1 0.6
2016-Feb-08 05:33N 35°31' E 139°46'3 2.5
2016-Feb-08 04:33N 35°28' E 139°47'8 8.1
2016-Feb-08 03:33N 35°34' E 139°53'1 1.3
2016-Feb-08 02:33N 35°35' E 139°55'6 5.9
2016-Feb-08 01:33N 35°40' E 139°57'0 0.1
2016-Feb-08 00:33N 35°41' E 139°56'0 0.0
2016-Feb-07 23:27N 35°41' E 139°56'0 0.0
2016-Feb-07 22:18N 35°41' E 139°56'3 3.4
2016-Feb-07 21:33N 35°39' E 139°58'4 4.2
2016-Feb-07 20:32N 35°35' E 139°55'0 0.0
2016-Feb-07 19:32N 35°35' E 139°55'0 0.0
2016-Feb-07 18:32N 35°35' E 139°55'0 0.0
2016-Feb-07 17:32N 35°35' E 139°55'0 0.0
2016-Feb-07 16:32N 35°35' E 139°55'0 0.0
2016-Feb-07 15:32N 35°35' E 139°55'0 0.0
2016-Feb-07 14:32N 35°35' E 139°55'0 0.0
2016-Feb-07 13:32N 35°35' E 139°55'0 0.0
2016-Feb-07 12:32N 35°35' E 139°55'0 0.1
2016-Feb-07 11:33N 35°35' E 139°55'8 8.4
2016-Feb-07 10:34N 35°29' E 139°48'8 8.4
2016-Feb-07 09:34N 35°24' E 139°40'0 0.2
2016-Feb-07 08:31N 35°24' E 139°40'0 0.0
2016-Feb-07 07:31N 35°24' E 139°40'0 0.0
2016-Feb-07 06:31N 35°24' E 139°40'0 0.0
2016-Feb-07 05:31N 35°24' E 139°40'3 2.8
2016-Feb-07 04:33N 35°25' E 139°43'1111.4
2016-Feb-07 03:33N 35°33' E 139°52'8 8.3
2016-Feb-07 02:33N 35°41' E 139°56'0 0.0
2016-Feb-07 01:33N 35°41' E 139°56'0 0.0
2016-Feb-07 00:27N 35°41' E 139°56'0 0.0
2016-Feb-06 23:33N 35°41' E 139°56'0 0.0
2016-Feb-06 22:33N 35°41' E 139°56'2 1.6
2016-Feb-06 21:34N 35°39' E 139°58'5 4.4
2016-Feb-06 20:30N 35°35' E 139°55'0 0.0
2016-Feb-06 19:24N 35°35' E 139°55'0 0.0
2016-Feb-06 18:33N 35°35' E 139°55'0 0.0
2016-Feb-06 17:24N 35°35' E 139°55'0 0.0
2016-Feb-06 16:24N 35°35' E 139°55'0 0.0
2016-Feb-06 15:30N 35°35' E 139°55'0 0.0
2016-Feb-06 14:33N 35°35' E 139°55'0 0.1
2016-Feb-06 13:33N 35°35' E 139°55'0 0.0
2016-Feb-06 12:27N 35°35' E 139°55'5 5.4
2016-Feb-06 11:33N 35°32' E 139°59'3 2.7
2016-Feb-06 10:25N 35°30' E 140°02'0 0.0
2016-Feb-06 09:31N 35°30' E 140°02'0 0.0
2016-Feb-06 08:31N 35°30' E 140°02'0 0.0
2016-Feb-06 07:25N 35°30' E 140°02'3 3.0
2016-Feb-06 06:33N 35°31' E 139°59'4 4.3
2016-Feb-06 05:33N 35°34' E 139°55'1 0.9
2016-Feb-06 04:33N 35°35' E 139°55'5 5.1
2016-Feb-06 03:33N 35°39' E 139°58'1 1.3
2016-Feb-06 02:30N 35°41' E 139°56'0 0.0
2016-Feb-06 01:24N 35°41' E 139°56'0 0.0
2016-Feb-06 00:30N 35°41' E 139°56'0 0.0
2016-Feb-05 23:24N 35°41' E 139°56'1 1.2
2016-Feb-05 22:33N 35°40' E 139°57'5 4.8
2016-Feb-05 21:31N 35°35' E 139°55'0 0.0
2016-Feb-05 20:07N 35°35' E 139°55'0 0.0
2016-Feb-05 19:19N 35°35' E 139°55'0 0.0
2016-Feb-05 18:31N 35°35' E 139°55'0 0.0
2016-Feb-05 17:25N 35°35' E 139°55'0 0.0
2016-Feb-05 16:31N 35°35' E 139°55'0 0.0
2016-Feb-05 15:31N 35°35' E 139°55'0 0.0
2016-Feb-05 14:31N 35°35' E 139°55'0 0.0
2016-Feb-05 13:31N 35°35' E 139°55'0 0.0
2016-Feb-05 12:31N 35°35' E 139°55'0 0.0
2016-Feb-05 11:31N 35°35' E 139°55'0 0.1
2016-Feb-05 10:33N 35°35' E 139°55'8 7.8
2016-Feb-05 09:30N 35°29' E 140°01'0 0.0
2016-Feb-05 08:30N 35°29' E 140°01'0 0.0
2016-Feb-05 07:30N 35°29' E 140°01'0 0.0
2016-Feb-05 06:30N 35°29' E 140°01'0 0.0
2016-Feb-05 05:30N 35°29' E 140°01'0 0.0
2016-Feb-05 04:30N 35°29' E 140°01'0 0.0
2016-Feb-05 03:30N 35°29' E 140°01'6 6.1
2016-Feb-05 02:33N 35°34' E 139°59'7 5.7
2016-Feb-05 01:23N 35°41' E 139°56'0 0.0
2016-Feb-05 00:29N 35°41' E 139°56'0 0.0
2016-Feb-04 23:23N 35°41' E 139°56'0 0.0
2016-Feb-04 22:29N 35°41' E 139°56'1 1.6
2016-Feb-04 21:33N 35°39' E 139°58'4 3.7
2016-Feb-04 20:22N 35°36' E 139°55'0 0.0
2016-Feb-04 18:22N 35°36' E 139°55'0 0.0
2016-Feb-04 17:28N 35°36' E 139°55'0 0.0
2016-Feb-04 16:22N 35°36' E 139°55'0 0.0
2016-Feb-04 15:28N 35°36' E 139°55'0 0.1
2016-Feb-04 14:31N 35°36' E 139°55'0 0.0
2016-Feb-04 13:31N 35°36' E 139°55'0 0.0
2016-Feb-04 12:31N 35°36' E 139°55'7 7.1
2016-Feb-04 11:33N 35°31' E 139°49'3 3.4
2016-Feb-04 10:32N 35°30' E 139°45'0 0.0
2016-Feb-04 09:32N 35°30' E 139°45'0 0.0
2016-Feb-04 08:32N 35°30' E 139°45'0 0.0
2016-Feb-04 07:32N 35°30' E 139°45'3 3.5
2016-Feb-04 06:33N 35°27' E 139°43'7 6.4
2016-Feb-04 05:31N 35°30' E 139°51'0 0.0
2016-Feb-04 04:31N 35°30' E 139°51'1 0.6
2016-Feb-04 03:33N 35°30' E 139°51'1010.4
2016-Feb-04 02:33N 35°39' E 139°58'2 1.6
2016-Feb-04 01:26N 35°41' E 139°56'0 0.0
2016-Feb-04 00:26N 35°41' E 139°56'0 0.0
2016-Feb-03 23:08N 35°41' E 139°56'0 0.0
2016-Feb-03 22:32N 35°41' E 139°56'2 1.9
2016-Feb-03 21:33N 35°39' E 139°58'5 4.6
2016-Feb-03 20:29N 35°35' E 139°55'0 0.0
2016-Feb-03 19:23N 35°35' E 139°55'0 0.0
2016-Feb-03 18:29N 35°35' E 139°55'0 0.0
2016-Feb-03 17:29N 35°35' E 139°55'0 0.0
2016-Feb-03 16:23N 35°35' E 139°55'0 0.0
2016-Feb-03 15:29N 35°35' E 139°55'0 0.0
2016-Feb-03 14:23N 35°35' E 139°55'0 0.0
2016-Feb-03 13:23N 35°35' E 139°55'0 0.0
2016-Feb-03 12:29N 35°35' E 139°55'0 0.0
2016-Feb-03 11:14N 35°35' E 139°55'0 0.0
2016-Feb-03 10:32N 35°35' E 139°55'0 0.1
2016-Feb-03 09:32N 35°35' E 139°55'0 0.1
2016-Feb-03 08:33N 35°35' E 139°55'7 7.0
2016-Feb-03 07:31N 35°30' E 140°02'0 0.0
2016-Feb-03 04:23N 35°30' E 140°02'7 8.6
2016-Feb-03 03:33N 35°34' E 139°55'5 5.0
2016-Feb-03 02:33N 35°38' E 139°59'3 2.2
2016-Feb-03 01:09N 35°41' E 139°56'0 0.0
2016-Feb-03 00:33N 35°41' E 139°56'0 0.0
2016-Feb-02 23:27N 35°41' E 139°56'0 0.0
2016-Feb-02 22:21N 35°41' E 139°56'2 2.5
2016-Feb-02 21:33N 35°39' E 139°58'5 4.9
2016-Feb-02 20:29N 35°34' E 139°55'0 0.0
2016-Feb-02 19:17N 35°34' E 139°55'0 0.0
2016-Feb-02 18:29N 35°34' E 139°55'0 0.0
2016-Feb-02 17:32N 35°34' E 139°55'0 0.0
2016-Feb-02 16:29N 35°34' E 139°55'0 0.0
2016-Feb-02 15:20N 35°34' E 139°55'0 0.0
2016-Feb-02 14:29N 35°34' E 139°55'0 0.1
2016-Feb-02 13:33N 35°35' E 139°55'9 9.0
2016-Feb-02 12:33N 35°30' E 139°45'0 0.1
2016-Feb-02 11:32N 35°30' E 139°45'0 0.0
2016-Feb-02 10:32N 35°30' E 139°45'0 0.0
2016-Feb-02 09:32N 35°30' E 139°45'0 0.0
2016-Feb-02 08:29N 35°30' E 139°45'3 3.5
2016-Feb-02 07:33N 35°28' E 139°42'7 7.1
2016-Feb-02 06:33N 35°30' E 139°50'0 0.0
2016-Feb-02 05:30N 35°30' E 139°50'6 6.5
2016-Feb-02 04:33N 35°35' E 139°55'6 4.8
2016-Feb-02 03:22N 35°41' E 139°56'0 0.0
2016-Feb-02 02:28N 35°41' E 139°56'0 0.0
2016-Feb-02 01:22N 35°41' E 139°56'0 0.0
2016-Feb-02 00:22N 35°41' E 139°56'0 0.0
2016-Feb-01 23:22N 35°41' E 139°56'5 6.5
2016-Feb-01 22:33N 35°35' E 139°56'1 0.6
2016-Feb-01 21:30N 35°35' E 139°55'0 0.0
2016-Feb-01 19:30N 35°35' E 139°55'0 0.0
2016-Feb-01 18:18N 35°35' E 139°55'0 0.0
2016-Feb-01 17:30N 35°35' E 139°55'0 0.0
2016-Feb-01 16:06N 35°35' E 139°55'0 0.0
2016-Feb-01 15:30N 35°35' E 139°55'0 0.0
2016-Feb-01 14:30N 35°35' E 139°55'0 0.0
2016-Feb-01 13:24N 35°35' E 139°55'0 0.1
2016-Feb-01 12:33N 35°35' E 139°55'0 0.0
2016-Feb-01 11:18N 35°35' E 139°55'0 0.1
2016-Feb-01 10:30N 35°35' E 139°55'0 0.0
2016-Feb-01 09:33N 35°35' E 139°55'0 0.0
2016-Feb-01 08:33N 35°35' E 139°55'0 0.0
2016-Feb-01 07:30N 35°35' E 139°55'0 0.0
2016-Feb-01 06:33N 35°35' E 139°55'0 0.1
2016-Feb-01 05:27N 35°35' E 139°55'0 0.0
2016-Feb-01 04:30N 35°35' E 139°55'0 0.0
2016-Feb-01 03:30N 35°35' E 139°55'0 0.0
2016-Feb-01 02:30N 35°35' E 139°55'6 6.0
2016-Feb-01 01:33N 35°31' E 140°00'2 1.6
2016-Feb-01 00:22N 35°30' E 140°02'0 0.0
2016-Jan-31 23:28N 35°30' E 140°02'0 0.0
2016-Jan-31 22:28N 35°30' E 140°02'2 1.9
2016-Jan-31 21:33N 35°31' E 140°00'1 0.9
2016-Jan-31 20:26N 35°31' E 139°59'0 0.0
2016-Jan-31 19:32N 35°31' E 139°59'0 0.0
2016-Jan-31 18:14N 35°31' E 139°59'0 0.0
2016-Jan-31 17:32N 35°31' E 139°59'0 0.0
2016-Jan-31 16:32N 35°31' E 139°59'0 0.1
2016-Jan-31 15:32N 35°31' E 139°59'0 0.1
2016-Jan-31 14:32N 35°32' E 139°59'  

Dump ship's entire track history